Domov               UVHVVR             MKGP            O straneh              
ZDRAVSTVENO VARSTVO RASTLIN
  MREŽA AGROMET. POSTAJ
 ► PROGNOSTIČNA OBVESTILA
AGROMETEOROLOŠKI PODATKI -
ARSO
OBVLADOVANJE TVEGANJ ZARADI
NEUGODNIH VREMENSKIH RAZMER
  ► NARAVNE NESREČE
  ► SUŠA/MOČA
  ► NAMAKANJE
  ► ŽLED (gozdarstvo)
KARTOGRAFSKI PRIKAZI
SPLETNE POVEZAVE
PROJEKTI IN PUBLIKACIJE

AGROMETEOROLOŠKA MREŽA: VREMENSKE POSTAJE IN FENOLOŠKA OPAZOVANJA

Pregled podatkov za lokacijo Blanca, meteorološka postaja 27263

Pregled senzorjev na lokaciji

ID Ime Zadnja
vrednost
Datum
zadnje
spremembe
Tip
senzorja
2154 Omočenost lista (U) 0 U 19.7.2018 22:03 A730WET
2155 Padavine (mm) 0 mm 19.7.2018 22:04 Generic
2153 Relativna vlaga 2 m (% RH) 78,57 % RH 19.7.2018 22:03 Generic 0 - 100 %
2158 Temperatura 2 m (°C) 20,97 °C 19.7.2018 22:03 Generic -40 - +60 °C

Pregled podatkov zadnjih 24 ur

Zap.
št.
Datum in čas Blanca
Omočenost
lista
Padavine Relativna
vlaga
2
m
Temperatura
2
m
1 19.7.2018 23:00
2 19.7.2018 22:30
3 19.7.2018 22:00
4 19.7.2018 21:30
5 19.7.2018 21:00 0 0 76,5 21,4
6 19.7.2018 20:30 0 0 67,9 22,8
7 19.7.2018 20:00 0 0 64 23,8
8 19.7.2018 19:30 0 0 59,9 24,8
9 19.7.2018 19:00 0 0 52 26,5
10 19.7.2018 18:30 0 0 49 27,1
11 19.7.2018 18:00 0 0 47,7 27,3
12 19.7.2018 17:30 0 0 43,9 27,8
13 19.7.2018 17:00 0 0 43,6 28,1
14 19.7.2018 16:30 0 0 43,1 28,3
15 19.7.2018 16:00 0 0 43,2 28,6
16 19.7.2018 15:30 0 0 41,7 28,8
17 19.7.2018 15:00 0 0 42,6 28,5
18 19.7.2018 14:30 0 0 42,8 28,4
19 19.7.2018 14:00 0 0 43,3 28,3
20 19.7.2018 13:30 0 0 46,3 28
21 19.7.2018 13:00 0 0 47 27,6
22 19.7.2018 12:30 0 0 49,9 27,6
23 19.7.2018 12:00 0 0 50,6 27,3
24 19.7.2018 11:30 0 0 54,1 26,6
25 19.7.2018 11:00 0 0 57,2 26,2
26 19.7.2018 10:30 0 0 51,9 26
27 19.7.2018 10:00 0 0 53,1 24,9
28 19.7.2018 09:30 0 0 63,8 23,8
29 19.7.2018 09:00 0 0 66 22,8
30 19.7.2018 08:30 0 0 69,3 21,5
31 19.7.2018 08:00 0 0 74 20
32 19.7.2018 07:30 0 0 76 18,8
33 19.7.2018 07:00 0 0 80,5 17,4
34 19.7.2018 06:30 0 0 86 16,2
35 19.7.2018 06:00 0 0 89,8 15
36 19.7.2018 05:30 0 0 91,8 14,3
37 19.7.2018 05:00 0 0 90,7 14,4
38 19.7.2018 04:30 0 0 92 14,1
39 19.7.2018 04:00 0 0 91,8 13,9
40 19.7.2018 03:30 0 0 90,4 14,7
41 19.7.2018 03:00 0 0 91 14,4
42 19.7.2018 02:30 0 0 90,1 14,7
43 19.7.2018 02:00 0 0 89,6 15
44 19.7.2018 01:30 0 0 89,9 15
45 19.7.2018 01:00 0 0 87,3 15,5
46 19.7.2018 00:30 0 0 87,4 15,7
47 19.7.2018 00:00 0 0 88,2 16,4
48 18.7.2018 23:30 0 0 87,6 16,3
© 2011 Ministrstvo za kmetijstvo, gozdarstvo in prehrano. Vse pravice pridržane.